Time;durP1;ratioP1;P1;durP2;ratioP2;P2;SDS_P1;SDS_P2;PMS_P1;PMS_P2;Temp;Humidity;BMP_temperature;BMP_pressure;BME280_temperature;BME280_humidity;BME280_pressure;Samples;Min_cycle;Max_cycle;Signal;HPM_P1;HPM_P2
2021/10/21 00:01:46;;;;;;;;;0.50;0.50;;;;;22.04;47.38;99284.44;5001886;28;51074;-50
2021/10/21 00:04:12;;;;;;;;;2.00;1.00;;;;;22.04;47.82;99282.50;5004133;28;51269;-48
2021/10/21 00:06:37;;;;;;;;;1.00;1.00;;;;;22.03;47.50;99269.00;5008959;28;50979;-49
2021/10/21 00:09:03;;;;;;;;;1.75;1.00;;;;;22.02;47.65;99270.09;5004635;28;51024;-49
2021/10/21 00:11:30;;;;;;;;;0.00;0.00;;;;;22.01;47.45;99274.78;5007565;28;51107;-50
2021/10/21 00:13:56;;;;;;;;;1.75;0.50;;;;;22.01;47.32;99268.44;5005226;28;51155;-49
2021/10/21 00:16:22;;;;;;;;;2.00;1.25;;;;;22.00;47.75;99264.03;5006486;28;51079;-50
2021/10/21 00:18:49;;;;;;;;;3.00;1.75;;;;;21.99;47.45;99277.00;5007480;28;52915;-49
2021/10/21 00:21:15;;;;;;;;;0.50;0.00;;;;;21.99;47.68;99279.75;5006318;28;51261;-47
2021/10/21 00:23:40;;;;;;;;;1.00;1.00;;;;;21.99;47.44;99282.50;5004002;28;50968;-47
2021/10/21 00:26:08;;;;;;;;;2.00;2.00;;;;;22.00;47.68;99283.31;5006307;28;51356;-46
2021/10/21 00:28:35;;;;;;;;;1.00;0.00;;;;;21.99;47.22;99276.13;5007728;28;51727;-49
2021/10/21 00:31:01;;;;;;;;;2.00;0.00;;;;;21.98;47.10;99283.56;5005754;28;51076;-46
2021/10/21 00:33:26;;;;;;;;;0.00;0.00;;;;;21.98;47.23;99304.81;5009691;28;51257;-47
2021/10/21 00:35:51;;;;;;;;;1.00;1.00;;;;;21.97;47.07;99300.38;5008544;28;51031;-50
2021/10/21 00:38:17;;;;;;;;;0.25;0.25;;;;;21.97;46.95;99300.38;5007666;28;51109;-49
2021/10/21 00:40:42;;;;;;;;;0.75;0.75;;;;;21.97;47.43;99300.38;5006800;28;51122;-48
2021/10/21 00:43:08;;;;;;;;;2.00;1.00;;;;;21.97;47.38;99327.97;5008722;28;51073;-47
2021/10/21 00:45:33;;;;;;;;;1.00;1.00;;;;;21.97;47.07;99305.91;5006398;28;51257;-47
2021/10/21 00:47:58;;;;;;;;;0.25;0.25;;;;;21.96;47.01;99318.03;5007690;28;51851;-46
2021/10/21 00:50:25;;;;;;;;;2.00;1.00;;;;;21.96;47.11;99296.81;5008315;28;51065;-45
2021/10/21 00:52:50;;;;;;;;;0.50;0.00;;;;;21.96;47.43;99324.38;5005838;28;51372;-50
2021/10/21 00:55:16;;;;;;;;;2.00;0.75;;;;;21.96;47.10;99318.03;5005303;28;51276;-52
2021/10/21 00:57:42;;;;;;;;;1.00;1.00;;;;;21.95;47.62;99299.84;5005355;28;50881;-54
2021/10/21 01:00:08;;;;;;;;;2.75;1.00;;;;;21.94;47.09;99310.03;5005331;28;51417;-45
2021/10/21 01:02:33;;;;;;;;;2.00;1.25;;;;;21.94;47.35;99312.78;5010563;28;51051;-45
2021/10/21 01:04:59;;;;;;;;;1.50;0.50;;;;;21.93;47.38;99313.88;5010018;28;51121;-45
2021/10/21 01:07:25;;;;;;;;;1.00;1.00;;;;;21.93;47.33;99349.72;4989816;28;51148;-54
2021/10/21 01:09:52;;;;;;;;;2.50;0.50;;;;;21.92;47.17;99353.59;5008213;28;51106;-44
2021/10/21 01:12:17;;;;;;;;;0.00;0.00;;;;;21.92;47.50;99334.28;5003347;28;51112;-45
2021/10/21 01:14:43;;;;;;;;;1.50;0.50;;;;;21.92;47.10;99358.28;5004128;28;51375;-47
2021/10/21 01:17:12;;;;;;;;;2.00;0.00;;;;;21.92;47.36;99372.06;5007482;28;51102;-46
2021/10/21 01:19:38;;;;;;;;;3.50;0.00;;;;;21.90;47.46;99373.16;5006267;28;51348;-51
2021/10/21 01:22:03;;;;;;;;;1.00;1.00;;;;;21.90;46.88;99386.13;5007816;28;51088;-45
2021/10/21 01:24:29;;;;;;;;;1.00;1.00;;;;;21.89;46.84;99359.66;5004572;28;51239;-46
2021/10/21 01:26:54;;;;;;;;;0.00;0.00;;;;;21.89;46.72;99421.13;5012553;28;51069;-46
2021/10/21 01:29:22;;;;;;;;;0.75;0.75;;;;;21.90;47.28;99388.88;5007516;28;51110;-47
2021/10/21 01:31:49;;;;;;;;;0.50;0.50;;;;;21.88;46.94;99419.47;5003102;28;51213;-45
2021/10/21 01:34:15;;;;;;;;;0.25;0.25;;;;;21.89;46.81;99420.28;5007304;28;51036;-46
2021/10/21 01:36:43;;;;;;;;;0.75;0.00;;;;;21.88;47.07;99429.63;5007003;28;51087;-48
2021/10/21 01:39:11;;;;;;;;;0.00;0.00;;;;;21.87;46.75;99445.34;5000684;28;51097;-48
2021/10/21 01:41:37;;;;;;;;;0.00;0.00;;;;;21.87;46.78;99441.75;5007481;28;51173;-47
2021/10/21 01:44:03;;;;;;;;;0.00;0.00;;;;;21.86;46.86;99456.63;5004543;28;51043;-46
2021/10/21 01:46:28;;;;;;;;;1.00;0.75;;;;;21.86;47.24;99431.84;5003992;28;51888;-49
2021/10/21 01:48:53;;;;;;;;;0.75;0.25;;;;;21.85;46.71;99435.69;5009484;28;50980;-48
2021/10/21 01:51:19;;;;;;;;;0.00;0.00;;;;;21.85;46.85;99443.97;5005490;28;51135;-47
2021/10/21 01:53:45;;;;;;;;;0.75;0.00;;;;;21.84;46.69;99478.97;5007000;28;50943;-47
2021/10/21 01:56:10;;;;;;;;;0.25;0.00;;;;;21.83;47.08;99496.59;4998965;28;51728;-48
2021/10/21 01:58:36;;;;;;;;;1.00;0.00;;;;;21.83;46.73;99485.56;5000475;28;51243;-46
2021/10/21 02:01:02;;;;;;;;;0.00;0.00;;;;;21.83;46.67;99515.91;5007054;28;51144;-46
2021/10/21 02:03:27;;;;;;;;;0.00;0.00;;;;;21.82;47.24;99497.69;5003125;28;51105;-44
2021/10/21 02:05:54;;;;;;;;;0.75;0.00;;;;;21.82;46.67;99530.78;5003348;28;51093;-47
2021/10/21 02:08:19;;;;;;;;;1.00;0.50;;;;;21.82;46.87;99528.03;5009831;28;51025;-47
2021/10/21 02:10:45;;;;;;;;;0.00;0.00;;;;;21.81;46.94;99531.88;5005651;28;51135;-45
2021/10/21 02:13:11;;;;;;;;;0.00;0.00;;;;;21.82;46.83;99518.91;5008677;28;51198;-43
2021/10/21 02:15:36;;;;;;;;;1.75;0.00;;;;;21.82;47.14;99539.06;5006487;28;51742;-44
2021/10/21 02:18:02;;;;;;;;;0.00;0.00;;;;;21.81;47.13;99511.75;5003068;28;51229;-44
2021/10/21 02:20:28;;;;;;;;;0.00;0.00;;;;;21.80;46.56;99566.06;5004059;28;52110;-47
2021/10/21 02:22:53;;;;;;;;;0.50;0.00;;;;;21.79;46.61;99564.38;5006955;28;51051;-45
2021/10/21 02:25:20;;;;;;;;;0.00;0.00;;;;;21.79;47.24;99600.22;5002098;28;52453;-47
2021/10/21 02:27:46;;;;;;;;;0.00;0.00;;;;;21.79;47.20;99602.97;5011084;28;50960;-45
2021/10/21 02:30:13;;;;;;;;;0.00;0.00;;;;;21.79;46.50;99625.03;5006686;28;51256;-51
2021/10/21 02:32:40;;;;;;;;;0.75;0.50;;;;;21.77;46.52;99610.66;4986945;28;51063;-48
2021/10/21 02:35:07;;;;;;;;;0.25;0.00;;;;;21.78;46.78;99639.06;5004679;28;51863;-48
2021/10/21 02:37:34;;;;;;;;;0.00;0.00;;;;;21.79;46.95;99637.97;5003453;28;51130;-50
2021/10/21 02:39:59;;;;;;;;;1.00;0.00;;;;;21.77;46.53;99679.56;5004124;28;50987;-48
2021/10/21 02:42:24;;;;;;;;;0.50;0.00;;;;;21.76;46.51;99668.81;5009973;28;51107;-48
2021/10/21 02:44:50;;;;;;;;;0.00;0.00;;;;;21.76;46.39;99666.88;5000633;28;51425;-50
2021/10/21 02:47:15;;;;;;;;;0.00;0.00;;;;;21.76;46.94;99691.69;5013216;28;51095;-46
2021/10/21 02:49:40;;;;;;;;;1.25;0.00;;;;;21.76;46.90;99677.91;5009145;28;51264;-48
2021/10/21 02:52:06;;;;;;;;;1.00;0.00;;;;;21.75;46.95;99723.09;5008751;28;51844;-45
2021/10/21 02:54:31;;;;;;;;;0.00;0.00;;;;;21.75;46.91;99711.25;5006493;28;51027;-48
2021/10/21 02:56:57;;;;;;;;;0.00;0.00;;;;;21.74;46.48;99732.47;5006830;28;51023;-48
2021/10/21 02:59:23;;;;;;;;;0.00;0.00;;;;;21.74;46.63;99746.25;5003265;28;51094;-48
2021/10/21 03:01:48;;;;;;;;;1.00;0.00;;;;;21.75;46.69;99749.84;5015820;28;51111;-50
2021/10/21 03:04:14;;;;;;;;;0.00;0.00;;;;;21.74;46.61;99762.78;5009109;28;51292;-51
2021/10/21 03:06:39;;;;;;;;;0.00;0.00;;;;;21.74;46.45;99800.53;5007246;28;51308;-45
2021/10/21 03:09:05;;;;;;;;;0.00;0.00;;;;;21.73;47.00;99794.19;5004235;28;51252;-45
2021/10/21 03:11:30;;;;;;;;;0.00;0.00;;;;;21.73;46.93;99823.69;5005664;28;51006;-45
2021/10/21 03:13:56;;;;;;;;;0.00;0.00;;;;;21.73;46.89;99843.81;5013023;28;51741;-47
2021/10/21 03:16:21;;;;;;;;;0.00;0.00;;;;;21.73;46.81;99881.56;5009374;28;51901;-44
2021/10/21 03:18:46;;;;;;;;;0.00;0.00;;;;;21.72;46.38;99900.03;5002859;28;51264;-45
2021/10/21 03:21:12;;;;;;;;;0.25;0.00;;;;;21.72;46.19;99894.53;5007079;28;50971;-44
2021/10/21 03:23:37;;;;;;;;;0.00;0.00;;;;;21.72;46.73;99935.03;5007193;28;51017;-46
2021/10/21 03:26:02;;;;;;;;;0.00;0.00;;;;;21.72;46.80;99957.91;5007558;28;51137;-45
2021/10/21 03:28:28;;;;;;;;;0.00;0.00;;;;;21.72;46.78;99976.38;5010037;28;51315;-46
2021/10/21 03:30:53;;;;;;;;;0.00;0.00;;;;;21.72;46.49;99954.31;5012172;28;51447;-43
2021/10/21 03:33:18;;;;;;;;;0.00;0.00;;;;;21.71;46.86;100000.34;5008917;28;51878;-46
2021/10/21 03:35:44;;;;;;;;;0.00;0.00;;;;;21.70;46.68;99998.69;5008885;28;51077;-46
2021/10/21 03:38:09;;;;;;;;;0.00;0.00;;;;;21.70;46.44;100048.28;5008920;28;51286;-45
2021/10/21 03:40:35;;;;;;;;;0.00;0.00;;;;;21.70;46.86;100051.06;5006053;28;51251;-46
2021/10/21 03:43:01;;;;;;;;;0.00;0.00;;;;;21.70;46.71;100080.53;5008697;28;51026;-45
2021/10/21 03:45:26;;;;;;;;;0.00;0.00;;;;;21.70;46.32;100081.38;5013374;28;51183;-45
2021/10/21 03:47:52;;;;;;;;;0.00;0.00;;;;;21.71;46.36;100113.38;5006614;28;51070;-45
2021/10/21 03:50:17;;;;;;;;;0.00;0.00;;;;;21.70;46.99;100105.34;5006497;28;50995;-46
2021/10/21 03:52:43;;;;;;;;;0.00;0.00;;;;;21.70;46.79;100138.44;5006422;28;52104;-45
2021/10/21 03:55:09;;;;;;;;;0.00;0.00;;;;;21.69;46.90;100167.91;5011894;28;51058;-45
2021/10/21 03:57:34;;;;;;;;;0.00;0.00;;;;;21.69;46.44;100167.91;5008741;28;51181;-44
2021/10/21 03:59:59;;;;;;;;;0.00;0.00;;;;;21.69;46.57;100205.66;5007333;28;51399;-47
2021/10/21 04:02:25;;;;;;;;;0.75;0.00;;;;;21.69;46.80;100205.66;5007346;28;51143;-48
2021/10/21 04:04:50;;;;;;;;;0.25;0.00;;;;;21.68;46.73;100217.78;5007094;28;51218;-45
2021/10/21 04:07:16;;;;;;;;;0.00;0.00;;;;;21.68;46.41;100226.88;5008043;28;51087;-45
2021/10/21 04:09:41;;;;;;;;;0.00;0.00;;;;;21.67;46.52;100247.22;5009764;28;51341;-43
2021/10/21 04:12:06;;;;;;;;;1.00;0.00;;;;;21.68;47.04;100257.19;5007315;28;51605;-46
2021/10/21 04:14:32;;;;;;;;;0.00;0.00;;;;;21.68;46.58;100243.44;5005915;28;51374;-45
2021/10/21 04:16:58;;;;;;;;;0.00;0.00;;;;;21.68;46.63;100272.91;5012459;28;51158;-44
2021/10/21 04:19:23;;;;;;;;;0.00;0.00;;;;;21.68;46.97;100264.63;5008321;28;51138;-44
2021/10/21 04:21:49;;;;;;;;;0.25;0.00;;;;;21.68;47.03;100267.41;5010163;28;51153;-43
2021/10/21 04:24:14;;;;;;;;;0.00;0.00;;;;;21.67;46.92;100269.28;5008247;28;51547;-44
2021/10/21 04:26:40;;;;;;;;;0.00;0.00;;;;;21.68;47.00;100286.69;5007558;28;51047;-42
2021/10/21 04:29:05;;;;;;;;;0.00;0.00;;;;;21.67;46.52;100293.25;5001898;28;51166;-43
2021/10/21 04:31:31;;;;;;;;;0.00;0.00;;;;;21.65;47.00;100290.75;5005948;28;50942;-43
2021/10/21 04:33:57;;;;;;;;;0.00;0.00;;;;;21.66;46.90;100303.44;5006946;28;51057;-45
2021/10/21 04:36:22;;;;;;;;;0.75;0.00;;;;;21.66;46.53;100306.19;5004491;28;51141;-44
2021/10/21 04:38:47;;;;;;;;;0.00;0.00;;;;;21.65;46.89;100315.56;5008245;28;51260;-44
2021/10/21 04:41:13;;;;;;;;;1.00;0.00;;;;;21.64;46.35;100322.16;5009622;28;51958;-44
2021/10/21 04:43:38;;;;;;;;;0.75;0.00;;;;;21.65;46.58;100328.50;5007703;28;51081;-49
2021/10/21 04:46:03;;;;;;;;;0.00;0.00;;;;;21.64;46.39;100343.38;5004710;28;51500;-46
2021/10/21 04:48:29;;;;;;;;;0.00;0.00;;;;;21.63;46.45;100342.53;4990234;28;50927;-44
2021/10/21 04:50:54;;;;;;;;;2.00;0.00;;;;;21.63;46.99;100347.19;5006895;28;52132;-46
2021/10/21 04:53:19;;;;;;;;;0.00;0.00;;;;;21.64;47.09;100354.38;5007159;28;51219;-46
2021/10/21 04:55:45;;;;;;;;;0.00;0.00;;;;;21.63;46.60;100367.34;5006853;28;51458;-48
2021/10/21 04:58:10;;;;;;;;;0.00;0.00;;;;;21.63;46.84;100372.00;5009522;28;51190;-47
2021/10/21 05:00:36;;;;;;;;;1.00;0.00;;;;;21.63;46.71;100380.28;5002530;28;51248;-46
2021/10/21 05:03:20;;;;;;;;;0.25;0.00;;;;;21.62;46.84;100407.00;5007886;28;51321;-46
2021/10/21 05:05:45;;;;;;;;;0.00;0.00;;;;;21.62;46.54;100412.53;5003711;28;51159;-44
2021/10/21 05:08:11;;;;;;;;;0.50;0.25;;;;;21.60;45.00;100423.78;5007945;28;51001;-49
2021/10/21 05:10:36;;;;;;;;;2.00;1.00;;;;;21.56;43.50;100438.28;4989204;28;51315;-47
2021/10/21 05:13:01;;;;;;;;;2.00;0.00;;;;;21.48;42.67;100436.72;5008830;28;51967;-48
2021/10/21 05:15:27;;;;;;;;;1.25;0.50;;;;;21.39;42.65;100449.19;5004713;28;51078;-46
2021/10/21 05:17:53;;;;;;;;;1.00;1.00;;;;;21.31;41.93;100458.63;5006294;28;51210;-49
2021/10/21 05:20:19;;;;;;;;;2.00;1.00;;;;;21.22;41.59;100451.75;5003829;28;52123;-45
2021/10/21 05:22:44;;;;;;;;;0.00;0.00;;;;;21.13;41.81;100455.91;5002418;28;51963;-48
2021/10/21 05:25:10;;;;;;;;;3.25;2.00;;;;;21.05;41.39;100453.53;5007951;28;51041;-48
2021/10/21 05:27:36;;;;;;;;;1.00;1.00;;;;;21.00;41.81;100456.13;5003339;28;51154;-45
2021/10/21 05:30:04;;;;;;;;;0.75;0.75;;;;;21.02;42.58;100473.25;5012668;28;51027;-49
2021/10/21 05:32:30;;;;;;;;;3.00;1.00;;;;;21.08;42.18;100461.31;5006768;28;51106;-48
2021/10/21 05:34:55;;;;;;;;;0.00;0.00;;;;;21.19;42.35;100484.44;5007213;28;51285;-45
2021/10/21 05:37:21;;;;;;;;;1.00;0.00;;;;;21.27;42.63;100481.38;4999793;28;51043;-46
2021/10/21 05:39:46;;;;;;;;;2.00;1.00;;;;;21.38;43.01;100494.34;5004935;28;51917;-46
2021/10/21 05:42:11;;;;;;;;;2.00;1.00;;;;;21.48;42.96;100491.00;5004809;28;50984;-45
2021/10/21 05:44:37;;;;;;;;;1.75;1.00;;;;;21.57;42.89;100495.06;5003844;28;51190;-43
2021/10/21 05:47:03;;;;;;;;;1.00;1.00;;;;;21.63;43.38;100507.06;5006558;28;52754;-45
2021/10/21 05:49:29;;;;;;;;;2.00;1.00;;;;;21.66;42.85;100501.06;5001735;28;52073;-48
2021/10/21 05:51:54;;;;;;;;;1.00;1.00;;;;;21.67;43.38;100514.63;5003779;28;51165;-44
2021/10/21 05:54:19;;;;;;;;;1.50;1.00;;;;;21.66;43.76;100512.94;5005195;28;51193;-45
2021/10/21 05:56:45;;;;;;;;;0.75;0.75;;;;;21.66;43.94;100509.34;5002325;28;51237;-48
2021/10/21 05:59:10;;;;;;;;;2.25;1.25;;;;;21.65;44.06;100502.16;5001008;28;51661;-46
2021/10/21 06:01:36;;;;;;;;;3.00;2.25;;;;;21.64;44.45;100504.06;5001954;28;51248;-51
2021/10/21 06:04:01;;;;;;;;;3.25;3.00;;;;;21.64;44.43;100517.84;5006488;28;51158;-46
2021/10/21 06:06:27;;;;;;;;;5.00;1.25;;;;;21.64;44.32;100520.63;5004503;28;51261;-46
2021/10/21 06:08:52;;;;;;;;;3.00;1.00;;;;;21.64;44.25;100526.13;4999704;28;52481;-48
2021/10/21 06:11:17;;;;;;;;;3.00;1.75;;;;;21.64;44.32;100531.63;5006858;28;51078;-49
2021/10/21 06:13:43;;;;;;;;;3.00;1.25;;;;;21.64;44.28;100539.91;5002476;28;51142;-49
2021/10/21 06:16:08;;;;;;;;;2.25;2.00;;;;;21.64;45.06;100539.91;5006085;28;51032;-51
2021/10/21 06:18:35;;;;;;;;;3.00;1.25;;;;;21.64;44.59;100547.34;4999789;28;51366;-49
2021/10/21 06:21:05;;;;;;;;;0.50;0.50;;;;;21.65;44.76;100549.00;5008317;28;51198;-47
2021/10/21 06:23:30;;;;;;;;;4.50;1.75;;;;;21.65;44.57;100549.84;5000740;28;51522;-59
2021/10/21 06:25:55;;;;;;;;;1.75;1.00;;;;;21.71;44.96;100564.63;5011586;28;51036;-44
2021/10/21 06:28:21;;;;;;;;;2.75;1.25;;;;;21.78;44.48;100560.69;5004411;28;51263;-49
2021/10/21 06:30:47;;;;;;;;;3.75;2.00;;;;;21.84;44.81;100561.63;5002378;28;51154;-49
2021/10/21 06:33:13;;;;;;;;;2.75;2.00;;;;;21.86;44.43;100564.97;5007082;28;51166;-49
2021/10/21 06:35:44;;;;;;;;;1.00;1.00;;;;;21.87;44.04;100558.38;4996548;28;51003;-48
2021/10/21 06:38:10;;;;;;;;;2.50;2.50;;;;;21.87;44.57;100567.50;5004015;28;52081;-52
2021/10/21 06:40:35;;;;;;;;;3.00;1.25;;;;;21.85;44.05;100566.91;4998664;28;52359;-47
2021/10/21 06:43:01;;;;;;;;;3.50;3.00;;;;;21.85;44.52;100566.06;5006501;28;51136;-51
2021/10/21 06:45:27;;;;;;;;;3.75;2.00;;;;;21.84;44.23;100576.25;5004557;28;51275;-51
2021/10/21 06:47:52;;;;;;;;;4.00;2.75;;;;;21.82;43.91;100572.91;5004249;28;51126;-51
2021/10/21 06:50:18;;;;;;;;;3.25;2.75;;;;;21.83;44.09;100579.25;5005729;28;50967;-51
2021/10/21 06:52:47;;;;;;;;;2.00;1.00;;;;;21.82;44.37;100580.34;5002789;28;51327;-51
2021/10/21 06:55:14;;;;;;;;;4.75;2.00;;;;;21.81;44.26;100593.28;5003398;28;51841;-50
2021/10/21 06:57:51;;;;;;;;;5.50;3.00;;;;;21.81;44.23;100593.28;5001594;28;52746;-52
2021/10/21 07:00:17;;;;;;;;;4.25;2.00;;;;;21.80;44.23;100599.88;5004072;28;51261;-52
2021/10/21 07:02:43;;;;;;;;;2.50;1.25;;;;;21.81;44.04;100609.00;4985599;28;51150;-50
2021/10/21 07:05:10;;;;;;;;;3.75;1.00;;;;;21.79;44.31;100605.63;5003544;28;50998;-50
2021/10/21 07:07:35;;;;;;;;;4.00;3.00;;;;;21.78;44.39;100610.31;5000531;28;51967;-48
2021/10/21 07:10:01;;;;;;;;;4.75;2.75;;;;;21.77;43.98;100616.88;5005300;28;50958;-49
2021/10/21 07:12:27;;;;;;;;;3.00;2.00;;;;;21.77;43.96;100618.78;5000412;28;51112;-52
2021/10/21 07:14:52;;;;;;;;;2.75;1.25;;;;;21.77;43.79;100621.56;5003364;28;51097;-50
2021/10/21 07:17:18;;;;;;;;;2.75;1.00;;;;;21.76;44.06;100628.97;5002833;28;51071;-51
2021/10/21 07:19:46;;;;;;;;;1.00;0.25;;;;;21.74;44.15;100631.13;5010147;28;51335;-52
2021/10/21 07:22:11;;;;;;;;;3.00;2.00;;;;;21.73;44.21;100626.72;5005876;28;51202;-50
2021/10/21 07:24:36;;;;;;;;;5.25;2.50;;;;;21.72;44.13;100630.53;5002769;28;51318;-48
2021/10/21 07:27:02;;;;;;;;;1.25;1.25;;;;;21.71;44.23;100631.63;4997624;28;51078;-52
2021/10/21 07:29:27;;;;;;;;;5.00;2.00;;;;;21.69;43.71;100642.06;5001866;28;51074;-49
2021/10/21 07:31:53;;;;;;;;;1.00;1.00;;;;;21.70;43.70;100651.16;5007306;28;51694;-52
2021/10/21 07:34:18;;;;;;;;;3.00;1.75;;;;;21.69;43.84;100652.25;5008590;28;51332;-53
2021/10/21 07:36:43;;;;;;;;;2.00;1.50;;;;;21.67;44.14;100646.94;5009843;28;50955;-52
2021/10/21 07:39:09;;;;;;;;;2.25;2.25;;;;;21.66;43.83;100656.28;5008705;28;51046;-52
2021/10/21 07:41:35;;;;;;;;;2.50;1.00;;;;;21.65;44.13;100665.63;5002343;28;51102;-52
2021/10/21 07:44:01;;;;;;;;;1.25;1.00;;;;;21.64;44.12;100663.94;5007272;28;51185;-53
2021/10/21 07:46:26;;;;;;;;;2.50;1.25;;;;;21.63;43.71;100667.78;5005645;28;51758;-50
2021/10/21 07:48:51;;;;;;;;;1.00;1.00;;;;;21.62;44.14;100671.63;5010646;28;51153;-54
2021/10/21 07:51:17;;;;;;;;;2.00;2.00;;;;;21.62;43.72;100677.13;5004873;28;51085;-52
2021/10/21 07:53:42;;;;;;;;;4.00;0.50;;;;;21.61;44.28;100692.00;5011232;28;51131;-53
2021/10/21 07:56:08;;;;;;;;;3.00;2.50;;;;;21.60;44.24;100690.31;5004362;28;51713;-50
2021/10/21 07:58:33;;;;;;;;;2.25;2.25;;;;;21.59;44.31;100697.75;5005218;28;51183;-50
2021/10/21 08:00:58;;;;;;;;;3.00;1.00;;;;;21.58;43.86;100704.34;5003231;28;51070;-52
2021/10/21 08:03:24;;;;;;;;;1.00;1.00;;;;;21.58;44.08;100704.34;5006091;28;51343;-52
2021/10/21 08:05:49;;;;;;;;;4.25;1.50;;;;;21.58;44.37;100706.25;5008450;28;51112;-52
2021/10/21 08:08:15;;;;;;;;;2.25;1.00;;;;;21.57;44.39;100702.66;5005601;28;51066;-54
2021/10/21 08:10:40;;;;;;;;;2.00;2.00;;;;;21.56;44.47;100711.97;5007188;28;51863;-49
2021/10/21 08:13:05;;;;;;;;;4.75;2.00;;;;;21.55;43.90;100713.03;4999529;28;51281;-51
2021/10/21 08:15:31;;;;;;;;;3.00;2.00;;;;;21.54;43.81;100705.84;5007202;28;52885;-51
2021/10/21 08:17:57;;;;;;;;;5.25;2.25;;;;;21.53;44.24;100712.44;5005973;28;51019;-50
2021/10/21 08:20:26;;;;;;;;;1.25;1.00;;;;;21.54;43.89;100719.63;5004827;28;51635;-52
2021/10/21 08:22:51;;;;;;;;;3.00;2.00;;;;;21.54;44.62;100730.66;5009485;28;51365;-52
2021/10/21 08:25:17;;;;;;;;;2.75;2.00;;;;;21.53;44.34;100722.63;5004269;28;52079;-53
2021/10/21 08:27:44;;;;;;;;;2.00;1.00;;;;;21.52;44.06;100719.03;5003554;28;51425;-53
2021/10/21 08:30:12;;;;;;;;;1.50;0.25;;;;;21.53;44.40;100730.91;5000796;28;51173;-53
2021/10/21 08:32:38;;;;;;;;;1.00;1.00;;;;;21.51;44.20;100713.75;5005142;28;51411;-52
2021/10/21 08:35:05;;;;;;;;;1.75;1.75;;;;;21.50;44.33;100718.44;5006917;28;51924;-54
2021/10/21 08:37:31;;;;;;;;;1.75;1.75;;;;;21.51;44.60;100722.03;5006343;28;52071;-52
2021/10/21 08:39:56;;;;;;;;;2.50;2.00;;;;;21.50;44.11;100721.19;4998803;28;51234;-51
2021/10/21 08:42:22;;;;;;;;;2.00;1.00;;;;;21.50;44.13;100717.59;5008452;28;51177;-49
2021/10/21 08:44:48;;;;;;;;;1.25;1.00;;;;;21.49;44.00;100725.00;5006030;28;53048;-52
2021/10/21 08:47:20;;;;;;;;;2.25;0.75;;;;;21.49;44.53;100724.19;5003162;28;51226;-53
2021/10/21 08:49:47;;;;;;;;;1.00;1.00;;;;;21.49;44.35;100726.94;5004967;28;51466;-50
2021/10/21 08:52:16;;;;;;;;;2.00;1.50;;;;;21.49;44.22;100732.44;5005201;28;51347;-52
2021/10/21 08:54:41;;;;;;;;;1.25;1.25;;;;;21.49;44.67;100738.78;5005000;28;52234;-52
2021/10/21 08:57:13;;;;;;;;;2.00;1.00;;;;;21.50;44.49;100736.88;5002371;28;51213;-50
2021/10/21 08:59:44;;;;;;;;;1.75;1.75;;;;;21.49;44.19;100737.97;5004056;28;51243;-51
2021/10/21 09:02:18;;;;;;;;;2.25;1.75;;;;;21.51;44.41;100741.31;5003443;28;51317;-51
2021/10/21 09:08:00;;;;;;;;;1.50;1.50;;;;;21.50;44.53;100745.16;4949185;28;51131;-53
2021/10/21 09:10:26;;;;;;;;;2.00;2.00;;;;;21.52;44.11;100723.72;5000569;28;51339;-49
2021/10/21 09:12:52;;;;;;;;;1.00;1.00;;;;;21.54;44.52;100736.16;5010751;28;51306;-51
2021/10/21 09:15:23;;;;;;;;;1.25;1.25;;;;;21.57;44.07;100734.84;5007909;28;51099;-50
2021/10/21 09:17:50;;;;;;;;;3.50;2.00;;;;;21.61;44.51;100734.19;4999243;28;51335;-50
2021/10/21 09:20:27;;;;;;;;;3.75;1.00;;;;;21.64;44.63;100741.13;4996465;28;51493;-46
2021/10/21 09:23:06;;;;;;;;;2.00;1.25;;;;;21.68;44.69;100739.63;5002401;28;51409;-49
2021/10/21 09:25:31;;;;;;;;;3.00;1.25;;;;;21.71;44.14;100744.66;4999819;28;51914;-49
2021/10/21 09:27:58;;;;;;;;;2.75;2.00;;;;;21.76;44.18;100747.53;4995143;28;51255;-50
2021/10/21 09:30:27;;;;;;;;;4.00;1.25;;;;;21.79;44.01;100741.59;4981184;28;51947;-49
2021/10/21 09:32:54;;;;;;;;;2.25;2.25;;;;;21.83;44.20;100734.50;4984067;28;54396;-53
2021/10/21 09:35:22;;;;;;;;;1.00;1.00;;;;;21.86;44.11;100738.72;5001599;28;51212;-47
2021/10/21 09:37:48;;;;;;;;;3.25;2.50;;;;;21.89;44.31;100743.78;5003443;28;51456;-52
2021/10/21 09:40:19;;;;;;;;;2.75;2.25;;;;;21.94;44.31;100751.34;5001788;28;51754;-46
2021/10/21 09:42:53;;;;;;;;;2.50;1.00;;;;;21.96;44.18;100743.66;4997403;28;51210;-51
2021/10/21 09:45:21;;;;;;;;;2.25;2.00;;;;;21.98;44.23;100736.00;5007747;28;51507;-49
2021/10/21 09:48:00;;;;;;;;;2.00;0.50;;;;;22.01;44.36;100747.41;5000837;28;51239;-49
2021/10/21 09:50:28;;;;;;;;;5.00;2.25;;;;;22.03;44.02;100742.50;5000881;28;51322;-47
2021/10/21 09:53:13;;;;;;;;;2.50;1.00;;;;;22.06;43.95;100753.09;5002681;28;51703;-52
2021/10/21 09:55:41;;;;;;;;;0.75;0.75;;;;;22.08;43.77;100733.53;5000011;28;52626;-49
2021/10/21 09:58:10;;;;;;;;;1.00;1.00;;;;;22.09;43.72;100736.09;5001477;28;51475;-51
2021/10/21 10:00:36;;;;;;;;;1.00;1.00;;;;;22.12;43.65;100740.28;5009020;28;51735;-51
2021/10/21 10:03:29;;;;;;;;;2.00;1.25;;;;;22.14;44.15;100749.16;5004183;28;52262;-50
2021/10/21 10:05:55;;;;;;;;;1.25;1.00;;;;;22.15;43.87;100757.19;4985513;28;53099;-49
2021/10/21 10:08:23;;;;;;;;;2.00;2.00;;;;;22.17;44.13;100748.69;5003377;28;51405;-50
2021/10/21 10:10:52;;;;;;;;;2.50;2.50;;;;;22.19;43.50;100763.06;5001764;28;51071;-50
2021/10/21 10:13:19;;;;;;;;;3.25;2.00;;;;;22.21;43.55;100755.44;5002549;28;51419;-49
2021/10/21 10:15:45;;;;;;;;;36.75;31.75;;;;;22.22;43.58;100762.63;5004612;28;51790;-53
2021/10/21 10:18:42;;;;;;;;;49.25;39.75;;;;;22.25;44.10;100753.88;5000916;28;51112;-53
2021/10/21 10:21:25;;;;;;;;;69.00;50.75;;;;;22.26;43.67;100763.81;4993993;28;51619;-51
2021/10/21 10:23:54;;;;;;;;;67.50;52.75;;;;;22.27;43.91;100759.97;4997424;28;51161;-50
2021/10/21 10:26:49;;;;;;;;;68.25;53.50;;;;;22.28;44.25;100758.91;5001602;28;52103;-49
2021/10/21 10:29:42;;;;;;;;;68.25;53.75;;;;;22.29;43.84;100752.31;5004331;28;51067;-50
2021/10/21 10:32:30;;;;;;;;;70.75;52.75;;;;;22.29;44.38;100752.31;4976820;28;51572;-46
2021/10/21 10:34:56;;;;;;;;;71.00;53.25;;;;;22.30;44.13;100747.63;5003265;28;51356;-49
2021/10/21 10:37:21;;;;;;;;;61.75;48.50;;;;;22.30;44.07;100751.25;5007138;28;51890;-50
2021/10/21 10:39:53;;;;;;;;;65.25;51.00;;;;;22.28;43.75;100750.63;5006626;28;51140;-48
2021/10/21 10:42:31;;;;;;;;;58.50;45.25;;;;;22.28;43.56;100755.31;5008376;28;51130;-50
2021/10/21 10:44:59;;;;;;;;;57.25;45.50;;;;;22.27;43.74;100745.34;5000348;28;51293;-51
2021/10/21 10:47:37;;;;;;;;;62.50;48.00;;;;;22.25;43.53;100751.09;5006828;28;51162;-50
2021/10/21 10:50:09;;;;;;;;;53.25;42.50;;;;;22.25;43.54;100741.97;4999009;28;51125;-50
2021/10/21 10:53:06;;;;;;;;;45.50;36.75;;;;;22.23;43.88;100746.91;4996195;28;51269;-48
2021/10/21 10:55:46;;;;;;;;;48.75;37.75;;;;;22.22;43.36;100754.34;4999566;28;51332;-51
2021/10/21 10:58:25;;;;;;;;;40.75;35.25;;;;;22.19;43.96;100758.41;5004688;28;51115;-50
2021/10/21 11:00:56;;;;;;;;;39.25;32.75;;;;;22.18;43.70;100762.22;5001726;28;51645;-49
2021/10/21 11:03:34;;;;;;;;;38.25;33.50;;;;;22.17;43.79;100765.22;5004374;28;51127;-51
2021/10/21 11:06:07;;;;;;;;;29.25;27.50;;;;;22.16;43.91;100752.50;5008045;28;51168;-50
2021/10/21 11:08:51;;;;;;;;;34.75;30.75;;;;;22.16;43.47;100755.28;5004524;28;52087;-49
2021/10/21 11:11:38;;;;;;;;;35.00;27.25;;;;;22.14;43.95;100751.91;5005689;28;51010;-51
2021/10/21 11:14:09;;;;;;;;;32.75;29.75;;;;;22.13;43.89;100750.25;5010289;28;51179;-51
2021/10/21 11:16:43;;;;;;;;;28.75;25.50;;;;;22.12;43.50;100754.06;5008445;28;51388;-51
2021/10/21 11:19:10;;;;;;;;;19.25;18.75;;;;;22.10;44.20;100751.56;5004118;28;51226;-48
2021/10/21 11:21:51;;;;;;;;;26.50;25.75;;;;;22.08;43.89;100750.94;5007081;28;51116;-54
2021/10/21 11:24:47;;;;;;;;;27.25;20.25;;;;;22.08;44.21;100739.06;5007064;28;51140;-51
2021/10/21 11:27:20;;;;;;;;;22.75;18.50;;;;;22.06;44.53;100732.91;5000837;28;51111;-50
2021/10/21 11:29:47;;;;;;;;;19.75;17.50;;;;;22.05;43.99;100736.75;5009116;28;51131;-47
2021/10/21 11:32:14;;;;;;;;;20.00;18.00;;;;;22.04;44.23;100743.34;5007672;28;51046;-50